sensor_id;sensor_type;location;lat;lon;timestamp;P1;durP1;ratioP1;P2;durP2;ratioP2
10110;SDS011;5095;49.796;9.934;2022-09-09T00:04:37;1.93;;;0.83;;
10110;SDS011;5095;49.796;9.934;2022-09-09T00:09:38;4.10;;;1.03;;
10110;SDS011;5095;49.796;9.934;2022-09-09T00:12:16;2.70;;;0.80;;
10110;SDS011;5095;49.796;9.934;2022-09-09T00:14:48;3.00;;;1.10;;
10110;SDS011;5095;49.796;9.934;2022-09-09T00:22:16;1.03;;;0.80;;
10110;SDS011;5095;49.796;9.934;2022-09-09T00:24:46;2.10;;;1.27;;
10110;SDS011;5095;49.796;9.934;2022-09-09T00:27:30;2.30;;;1.47;;
10110;SDS011;5095;49.796;9.934;2022-09-09T00:32:39;3.50;;;1.00;;
10110;SDS011;5095;49.796;9.934;2022-09-09T00:35:23;2.50;;;0.60;;
10110;SDS011;5095;49.796;9.934;2022-09-09T00:37:51;2.13;;;0.80;;
10110;SDS011;5095;49.796;9.934;2022-09-09T00:42:58;2.60;;;0.60;;
10110;SDS011;5095;49.796;9.934;2022-09-09T00:47:56;3.00;;;1.10;;
10110;SDS011;5095;49.796;9.934;2022-09-09T00:55:27;4.00;;;1.00;;
10110;SDS011;5095;49.796;9.934;2022-09-09T00:57:55;1.07;;;0.70;;
10110;SDS011;5095;49.796;9.934;2022-09-09T01:05:27;2.60;;;1.00;;
10110;SDS011;5095;49.796;9.934;2022-09-09T01:07:56;2.70;;;1.00;;
10110;SDS011;5095;49.796;9.934;2022-09-09T01:10:29;3.13;;;0.80;;
10110;SDS011;5095;49.796;9.934;2022-09-09T01:12:58;2.13;;;0.70;;
10110;SDS011;5095;49.796;9.934;2022-09-09T01:15:27;1.87;;;0.53;;
10110;SDS011;5095;49.796;9.934;2022-09-09T01:17:59;2.93;;;0.70;;
10110;SDS011;5095;49.796;9.934;2022-09-09T01:20:53;2.37;;;0.60;;
10110;SDS011;5095;49.796;9.934;2022-09-09T01:28:26;2.23;;;0.70;;
10110;SDS011;5095;49.796;9.934;2022-09-09T01:30:53;2.00;;;0.60;;
10110;SDS011;5095;49.796;9.934;2022-09-09T01:33:19;4.57;;;0.80;;
10110;SDS011;5095;49.796;9.934;2022-09-09T01:35:50;1.93;;;0.53;;
10110;SDS011;5095;49.796;9.934;2022-09-09T01:38:19;2.03;;;0.40;;
10110;SDS011;5095;49.796;9.934;2022-09-09T01:40:45;2.17;;;0.57;;
10110;SDS011;5095;49.796;9.934;2022-09-09T01:43:11;2.23;;;0.80;;
10110;SDS011;5095;49.796;9.934;2022-09-09T01:45:38;2.67;;;0.73;;
10110;SDS011;5095;49.796;9.934;2022-09-09T01:48:05;1.87;;;0.53;;
10110;SDS011;5095;49.796;9.934;2022-09-09T01:50:31;1.00;;;0.70;;
10110;SDS011;5095;49.796;9.934;2022-09-09T01:52:57;2.10;;;0.60;;
10110;SDS011;5095;49.796;9.934;2022-09-09T01:55:36;1.90;;;0.73;;
10110;SDS011;5095;49.796;9.934;2022-09-09T02:00:35;1.83;;;0.80;;
10110;SDS011;5095;49.796;9.934;2022-09-09T02:03:09;2.73;;;0.60;;
10110;SDS011;5095;49.796;9.934;2022-09-09T02:05:38;4.83;;;0.93;;
10110;SDS011;5095;49.796;9.934;2022-09-09T02:13:18;1.97;;;0.50;;
10110;SDS011;5095;49.796;9.934;2022-09-09T02:15:47;3.37;;;0.90;;
10110;SDS011;5095;49.796;9.934;2022-09-09T02:18:21;2.53;;;0.70;;
10110;SDS011;5095;49.796;9.934;2022-09-09T02:20:49;2.00;;;0.73;;
10110;SDS011;5095;49.796;9.934;2022-09-09T02:23:17;2.77;;;1.10;;
10110;SDS011;5095;49.796;9.934;2022-09-09T02:25:43;3.83;;;0.90;;
10110;SDS011;5095;49.796;9.934;2022-09-09T02:28:11;2.10;;;0.53;;
10110;SDS011;5095;49.796;9.934;2022-09-09T02:30:39;3.40;;;1.20;;
10110;SDS011;5095;49.796;9.934;2022-09-09T02:33:06;2.63;;;0.80;;
10110;SDS011;5095;49.796;9.934;2022-09-09T02:35:35;3.43;;;0.90;;
10110;SDS011;5095;49.796;9.934;2022-09-09T02:38:05;1.83;;;0.70;;
10110;SDS011;5095;49.796;9.934;2022-09-09T02:40:32;3.40;;;1.27;;
10110;SDS011;5095;49.796;9.934;2022-09-09T02:42:58;3.70;;;1.13;;
10110;SDS011;5095;49.796;9.934;2022-09-09T02:45:25;2.67;;;0.83;;
10110;SDS011;5095;49.796;9.934;2022-09-09T02:50:23;3.70;;;1.00;;
10110;SDS011;5095;49.796;9.934;2022-09-09T02:58:09;3.27;;;0.90;;
10110;SDS011;5095;49.796;9.934;2022-09-09T03:00:36;1.40;;;0.80;;
10110;SDS011;5095;49.796;9.934;2022-09-09T03:03:03;1.40;;;0.80;;
10110;SDS011;5095;49.796;9.934;2022-09-09T03:05:30;1.80;;;0.77;;
10110;SDS011;5095;49.796;9.934;2022-09-09T03:07:56;3.47;;;0.90;;
10110;SDS011;5095;49.796;9.934;2022-09-09T03:10:22;2.13;;;0.90;;
10110;SDS011;5095;49.796;9.934;2022-09-09T03:12:48;2.77;;;0.80;;
10110;SDS011;5095;49.796;9.934;2022-09-09T03:15:15;3.10;;;1.10;;
10110;SDS011;5095;49.796;9.934;2022-09-09T03:17:41;2.50;;;0.80;;
10110;SDS011;5095;49.796;9.934;2022-09-09T03:20:08;2.53;;;0.80;;
10110;SDS011;5095;49.796;9.934;2022-09-09T03:22:34;2.20;;;1.10;;
10110;SDS011;5095;49.796;9.934;2022-09-09T03:25:01;2.83;;;0.80;;
10110;SDS011;5095;49.796;9.934;2022-09-09T03:27:27;2.10;;;0.80;;
10110;SDS011;5095;49.796;9.934;2022-09-09T03:29:54;2.50;;;0.80;;
10110;SDS011;5095;49.796;9.934;2022-09-09T03:32:21;3.60;;;1.00;;
10110;SDS011;5095;49.796;9.934;2022-09-09T03:34:47;2.57;;;0.80;;
10110;SDS011;5095;49.796;9.934;2022-09-09T03:37:17;2.17;;;0.90;;
10110;SDS011;5095;49.796;9.934;2022-09-09T03:39:43;2.70;;;1.00;;
10110;SDS011;5095;49.796;9.934;2022-09-09T03:42:12;3.17;;;1.03;;
10110;SDS011;5095;49.796;9.934;2022-09-09T03:44:39;1.00;;;0.67;;
10110;SDS011;5095;49.796;9.934;2022-09-09T03:47:07;3.40;;;1.07;;
10110;SDS011;5095;49.796;9.934;2022-09-09T03:49:33;1.87;;;0.80;;
10110;SDS011;5095;49.796;9.934;2022-09-09T03:51:59;3.57;;;1.13;;
10110;SDS011;5095;49.796;9.934;2022-09-09T03:54:26;1.10;;;0.80;;
10110;SDS011;5095;49.796;9.934;2022-09-09T03:56:52;1.70;;;1.07;;
10110;SDS011;5095;49.796;9.934;2022-09-09T03:59:18;2.53;;;0.80;;
10110;SDS011;5095;49.796;9.934;2022-09-09T04:01:46;2.63;;;0.90;;
10110;SDS011;5095;49.796;9.934;2022-09-09T04:04:12;3.63;;;0.97;;
10110;SDS011;5095;49.796;9.934;2022-09-09T04:06:38;3.63;;;1.10;;
10110;SDS011;5095;49.796;9.934;2022-09-09T04:09:04;1.80;;;0.97;;
10110;SDS011;5095;49.796;9.934;2022-09-09T04:11:30;3.37;;;1.10;;
10110;SDS011;5095;49.796;9.934;2022-09-09T04:13:57;2.63;;;1.10;;
10110;SDS011;5095;49.796;9.934;2022-09-09T04:16:23;1.57;;;1.00;;
10110;SDS011;5095;49.796;9.934;2022-09-09T04:18:49;1.93;;;1.00;;
10110;SDS011;5095;49.796;9.934;2022-09-09T04:21:15;2.60;;;1.00;;
10110;SDS011;5095;49.796;9.934;2022-09-09T04:23:42;2.50;;;1.00;;
10110;SDS011;5095;49.796;9.934;2022-09-09T04:26:08;2.50;;;1.23;;
10110;SDS011;5095;49.796;9.934;2022-09-09T04:28:34;5.07;;;1.20;;
10110;SDS011;5095;49.796;9.934;2022-09-09T04:31:07;2.10;;;1.10;;
10110;SDS011;5095;49.796;9.934;2022-09-09T04:33:34;2.23;;;1.00;;
10110;SDS011;5095;49.796;9.934;2022-09-09T04:36:00;3.83;;;1.10;;
10110;SDS011;5095;49.796;9.934;2022-09-09T04:38:27;4.60;;;1.30;;
10110;SDS011;5095;49.796;9.934;2022-09-09T04:40:53;3.40;;;1.10;;
10110;SDS011;5095;49.796;9.934;2022-09-09T04:43:19;2.70;;;0.93;;
10110;SDS011;5095;49.796;9.934;2022-09-09T04:45:49;1.80;;;1.10;;
10110;SDS011;5095;49.796;9.934;2022-09-09T04:48:19;3.83;;;1.00;;
10110;SDS011;5095;49.796;9.934;2022-09-09T04:53:21;3.23;;;0.90;;
10110;SDS011;5095;49.796;9.934;2022-09-09T04:55:47;9.27;;;1.33;;
10110;SDS011;5095;49.796;9.934;2022-09-09T04:58:14;3.67;;;0.83;;
10110;SDS011;5095;49.796;9.934;2022-09-09T05:00:40;3.57;;;1.30;;
10110;SDS011;5095;49.796;9.934;2022-09-09T05:03:07;3.53;;;1.10;;
10110;SDS011;5095;49.796;9.934;2022-09-09T05:05:34;1.17;;;0.90;;
10110;SDS011;5095;49.796;9.934;2022-09-09T05:08:01;3.90;;;1.10;;
10110;SDS011;5095;49.796;9.934;2022-09-09T05:10:27;5.13;;;1.90;;
10110;SDS011;5095;49.796;9.934;2022-09-09T05:12:54;2.60;;;1.27;;
10110;SDS011;5095;49.796;9.934;2022-09-09T05:15:22;3.10;;;1.40;;
10110;SDS011;5095;49.796;9.934;2022-09-09T05:17:48;2.53;;;1.00;;
10110;SDS011;5095;49.796;9.934;2022-09-09T05:20:14;2.20;;;0.80;;
10110;SDS011;5095;49.796;9.934;2022-09-09T05:22:40;1.60;;;0.90;;
10110;SDS011;5095;49.796;9.934;2022-09-09T05:25:06;2.87;;;1.17;;
10110;SDS011;5095;49.796;9.934;2022-09-09T05:27:35;2.93;;;1.07;;
10110;SDS011;5095;49.796;9.934;2022-09-09T05:30:02;2.03;;;1.00;;
10110;SDS011;5095;49.796;9.934;2022-09-09T05:32:29;2.47;;;1.23;;
10110;SDS011;5095;49.796;9.934;2022-09-09T05:34:59;2.13;;;1.03;;
10110;SDS011;5095;49.796;9.934;2022-09-09T05:37:25;3.17;;;1.03;;
10110;SDS011;5095;49.796;9.934;2022-09-09T05:39:51;3.93;;;1.33;;
10110;SDS011;5095;49.796;9.934;2022-09-09T05:42:18;3.37;;;1.17;;
10110;SDS011;5095;49.796;9.934;2022-09-09T05:44:44;1.90;;;1.10;;
10110;SDS011;5095;49.796;9.934;2022-09-09T05:47:10;4.13;;;1.20;;
10110;SDS011;5095;49.796;9.934;2022-09-09T05:49:36;2.57;;;0.93;;
10110;SDS011;5095;49.796;9.934;2022-09-09T05:52:02;3.10;;;1.20;;
10110;SDS011;5095;49.796;9.934;2022-09-09T05:54:29;4.77;;;1.10;;
10110;SDS011;5095;49.796;9.934;2022-09-09T05:56:55;5.47;;;1.50;;
10110;SDS011;5095;49.796;9.934;2022-09-09T05:59:21;4.10;;;1.03;;
10110;SDS011;5095;49.796;9.934;2022-09-09T06:01:48;3.10;;;0.83;;
10110;SDS011;5095;49.796;9.934;2022-09-09T06:04:14;2.87;;;1.00;;
10110;SDS011;5095;49.796;9.934;2022-09-09T06:06:41;3.80;;;1.00;;
10110;SDS011;5095;49.796;9.934;2022-09-09T06:09:07;4.30;;;1.20;;
10110;SDS011;5095;49.796;9.934;2022-09-09T06:11:36;2.10;;;0.90;;
10110;SDS011;5095;49.796;9.934;2022-09-09T06:14:03;1.73;;;0.87;;
10110;SDS011;5095;49.796;9.934;2022-09-09T06:16:29;2.70;;;0.90;;
10110;SDS011;5095;49.796;9.934;2022-09-09T06:18:57;2.43;;;1.00;;
10110;SDS011;5095;49.796;9.934;2022-09-09T06:21:24;3.37;;;1.40;;
10110;SDS011;5095;49.796;9.934;2022-09-09T06:23:51;3.50;;;1.20;;
10110;SDS011;5095;49.796;9.934;2022-09-09T06:26:19;2.53;;;1.03;;
10110;SDS011;5095;49.796;9.934;2022-09-09T06:28:46;2.53;;;1.10;;
10110;SDS011;5095;49.796;9.934;2022-09-09T06:31:13;1.87;;;0.87;;
10110;SDS011;5095;49.796;9.934;2022-09-09T06:33:40;2.93;;;1.03;;
10110;SDS011;5095;49.796;9.934;2022-09-09T06:36:15;3.03;;;1.07;;
10110;SDS011;5095;49.796;9.934;2022-09-09T06:38:42;3.27;;;1.07;;
10110;SDS011;5095;49.796;9.934;2022-09-09T06:41:08;5.77;;;0.90;;
10110;SDS011;5095;49.796;9.934;2022-09-09T06:43:35;4.23;;;0.80;;
10110;SDS011;5095;49.796;9.934;2022-09-09T06:46:02;7.03;;;3.53;;
10110;SDS011;5095;49.796;9.934;2022-09-09T06:48:28;5.43;;;1.00;;
10110;SDS011;5095;49.796;9.934;2022-09-09T06:51:05;4.07;;;1.80;;
10110;SDS011;5095;49.796;9.934;2022-09-09T06:53:32;4.03;;;1.70;;
10110;SDS011;5095;49.796;9.934;2022-09-09T06:56:02;2.53;;;1.10;;
10110;SDS011;5095;49.796;9.934;2022-09-09T06:58:28;2.07;;;0.70;;
10110;SDS011;5095;49.796;9.934;2022-09-09T07:01:05;1.70;;;1.00;;
10110;SDS011;5095;49.796;9.934;2022-09-09T07:03:31;2.00;;;0.77;;
10110;SDS011;5095;49.796;9.934;2022-09-09T07:05:57;1.33;;;0.63;;
10110;SDS011;5095;49.796;9.934;2022-09-09T07:08:24;2.43;;;0.83;;
10110;SDS011;5095;49.796;9.934;2022-09-09T07:10:53;2.47;;;0.70;;
10110;SDS011;5095;49.796;9.934;2022-09-09T07:13:25;3.17;;;1.13;;
10110;SDS011;5095;49.796;9.934;2022-09-09T07:15:52;2.63;;;0.97;;
10110;SDS011;5095;49.796;9.934;2022-09-09T07:18:19;2.00;;;0.80;;
10110;SDS011;5095;49.796;9.934;2022-09-09T07:20:54;4.40;;;1.47;;
10110;SDS011;5095;49.796;9.934;2022-09-09T07:23:22;2.53;;;0.80;;
10110;SDS011;5095;49.796;9.934;2022-09-09T07:25:48;1.73;;;0.80;;
10110;SDS011;5095;49.796;9.934;2022-09-09T07:28:15;4.03;;;0.70;;
10110;SDS011;5095;49.796;9.934;2022-09-09T07:30:41;2.47;;;0.93;;
10110;SDS011;5095;49.796;9.934;2022-09-09T07:33:07;2.60;;;0.77;;
10110;SDS011;5095;49.796;9.934;2022-09-09T07:35:34;2.13;;;0.67;;
10110;SDS011;5095;49.796;9.934;2022-09-09T07:38:02;3.67;;;1.10;;
10110;SDS011;5095;49.796;9.934;2022-09-09T07:40:31;5.83;;;0.67;;
10110;SDS011;5095;49.796;9.934;2022-09-09T07:42:57;2.77;;;0.83;;
10110;SDS011;5095;49.796;9.934;2022-09-09T07:45:24;1.53;;;0.80;;
10110;SDS011;5095;49.796;9.934;2022-09-09T07:47:53;3.03;;;0.80;;
10110;SDS011;5095;49.796;9.934;2022-09-09T07:50:21;1.40;;;0.70;;
10110;SDS011;5095;49.796;9.934;2022-09-09T07:52:48;4.67;;;1.03;;
10110;SDS011;5095;49.796;9.934;2022-09-09T07:55:14;2.33;;;1.00;;
10110;SDS011;5095;49.796;9.934;2022-09-09T07:57:40;3.33;;;1.13;;
10110;SDS011;5095;49.796;9.934;2022-09-09T08:00:07;2.27;;;0.70;;
10110;SDS011;5095;49.796;9.934;2022-09-09T08:02:33;2.83;;;0.80;;
10110;SDS011;5095;49.796;9.934;2022-09-09T08:04:59;2.07;;;1.00;;
10110;SDS011;5095;49.796;9.934;2022-09-09T08:07:25;3.07;;;1.00;;
10110;SDS011;5095;49.796;9.934;2022-09-09T08:09:52;3.90;;;0.80;;
10110;SDS011;5095;49.796;9.934;2022-09-09T08:12:19;2.07;;;0.83;;
10110;SDS011;5095;49.796;9.934;2022-09-09T08:14:45;3.73;;;1.03;;
10110;SDS011;5095;49.796;9.934;2022-09-09T08:17:11;5.30;;;0.80;;
10110;SDS011;5095;49.796;9.934;2022-09-09T08:19:37;2.17;;;0.90;;
10110;SDS011;5095;49.796;9.934;2022-09-09T08:22:03;1.97;;;0.70;;
10110;SDS011;5095;49.796;9.934;2022-09-09T08:24:30;3.97;;;0.90;;
10110;SDS011;5095;49.796;9.934;2022-09-09T08:26:56;1.93;;;0.90;;
10110;SDS011;5095;49.796;9.934;2022-09-09T08:29:22;2.60;;;0.80;;
10110;SDS011;5095;49.796;9.934;2022-09-09T08:31:49;3.93;;;1.40;;
10110;SDS011;5095;49.796;9.934;2022-09-09T08:34:16;2.80;;;0.90;;
10110;SDS011;5095;49.796;9.934;2022-09-09T08:36:45;3.37;;;1.30;;
10110;SDS011;5095;49.796;9.934;2022-09-09T08:39:12;5.13;;;1.60;;
10110;SDS011;5095;49.796;9.934;2022-09-09T08:49:56;4.20;;;1.13;;
10110;SDS011;5095;49.796;9.934;2022-09-09T08:54:57;3.63;;;1.03;;
10110;SDS011;5095;49.796;9.934;2022-09-09T08:57:25;3.83;;;1.00;;
10110;SDS011;5095;49.796;9.934;2022-09-09T08:59:52;2.70;;;0.87;;
10110;SDS011;5095;49.796;9.934;2022-09-09T09:05:07;5.83;;;1.27;;
10110;SDS011;5095;49.796;9.934;2022-09-09T09:10:49;4.90;;;0.93;;
10110;SDS011;5095;49.796;9.934;2022-09-09T09:12:57;2.87;;;1.60;;
10110;SDS011;5095;49.796;9.934;2022-09-09T09:15:26;7.83;;;1.23;;
10110;SDS011;5095;49.796;9.934;2022-09-09T09:17:52;3.53;;;1.10;;
10110;SDS011;5095;49.796;9.934;2022-09-09T09:20:21;5.37;;;1.30;;
10110;SDS011;5095;49.796;9.934;2022-09-09T09:22:49;4.93;;;1.50;;
10110;SDS011;5095;49.796;9.934;2022-09-09T09:25:23;4.97;;;2.20;;
10110;SDS011;5095;49.796;9.934;2022-09-09T09:27:57;5.70;;;1.87;;
10110;SDS011;5095;49.796;9.934;2022-09-09T09:30:38;2.77;;;1.00;;
10110;SDS011;5095;49.796;9.934;2022-09-09T09:33:43;3.63;;;1.20;;
10110;SDS011;5095;49.796;9.934;2022-09-09T09:35:57;4.23;;;1.10;;
10110;SDS011;5095;49.796;9.934;2022-09-09T09:38:25;3.77;;;1.33;;
10110;SDS011;5095;49.796;9.934;2022-09-09T09:40:53;6.23;;;2.10;;
10110;SDS011;5095;49.796;9.934;2022-09-09T09:43:36;3.60;;;1.30;;
10110;SDS011;5095;49.796;9.934;2022-09-09T09:46:05;5.37;;;1.80;;
10110;SDS011;5095;49.796;9.934;2022-09-09T09:48:31;4.57;;;1.40;;
10110;SDS011;5095;49.796;9.934;2022-09-09T09:51:01;5.17;;;1.47;;
10110;SDS011;5095;49.796;9.934;2022-09-09T09:53:29;2.17;;;0.80;;
10110;SDS011;5095;49.796;9.934;2022-09-09T09:58:26;4.20;;;1.03;;
10110;SDS011;5095;49.796;9.934;2022-09-09T10:00:53;3.87;;;1.07;;
10110;SDS011;5095;49.796;9.934;2022-09-09T10:03:22;3.60;;;1.20;;
10110;SDS011;5095;49.796;9.934;2022-09-09T10:05:48;3.83;;;1.07;;
10110;SDS011;5095;49.796;9.934;2022-09-09T10:08:15;4.13;;;1.20;;
10110;SDS011;5095;49.796;9.934;2022-09-09T10:16:21;2.23;;;0.80;;
10110;SDS011;5095;49.796;9.934;2022-09-09T10:21:24;4.07;;;1.23;;
10110;SDS011;5095;49.796;9.934;2022-09-09T10:26:40;4.63;;;1.10;;
10110;SDS011;5095;49.796;9.934;2022-09-09T10:29:35;3.80;;;1.33;;
10110;SDS011;5095;49.796;9.934;2022-09-09T10:34:38;4.13;;;1.60;;
10110;SDS011;5095;49.796;9.934;2022-09-09T10:38:11;6.87;;;2.50;;
10110;SDS011;5095;49.796;9.934;2022-09-09T10:40:26;4.37;;;2.00;;
10110;SDS011;5095;49.796;9.934;2022-09-09T10:42:56;36.30;;;4.10;;
10110;SDS011;5095;49.796;9.934;2022-09-09T10:45:48;31.97;;;5.83;;
10110;SDS011;5095;49.796;9.934;2022-09-09T10:48:54;0.00;;;0.00;;
10110;SDS011;5095;49.796;9.934;2022-09-09T10:53:35;0.10;;;0.10;;
10110;SDS011;5095;49.796;9.934;2022-09-09T10:56:23;0.10;;;0.10;;
10110;SDS011;5095;49.796;9.934;2022-09-09T10:58:51;0.10;;;0.10;;
10110;SDS011;5095;49.796;9.934;2022-09-09T11:04:25;0.10;;;0.10;;
10110;SDS011;5095;49.796;9.934;2022-09-09T11:06:46;0.10;;;0.10;;
10110;SDS011;5095;49.796;9.934;2022-09-09T11:09:15;0.10;;;0.10;;
10110;SDS011;5095;49.796;9.934;2022-09-09T11:21:59;0.10;;;0.10;;
10110;SDS011;5095;49.796;9.934;2022-09-09T11:24:40;0.13;;;0.13;;
10110;SDS011;5095;49.796;9.934;2022-09-09T11:27:13;0.10;;;0.10;;
10110;SDS011;5095;49.796;9.934;2022-09-09T11:32:24;0.10;;;0.10;;
10110;SDS011;5095;49.796;9.934;2022-09-09T11:42:18;0.90;;;0.90;;
10110;SDS011;5095;49.796;9.934;2022-09-09T11:44:44;0.10;;;0.10;;
10110;SDS011;5095;49.796;9.934;2022-09-09T11:49:43;0.10;;;0.10;;
10110;SDS011;5095;49.796;9.934;2022-09-09T11:53:02;0.10;;;0.10;;
10110;SDS011;5095;49.796;9.934;2022-09-09T11:54:56;0.10;;;0.10;;
10110;SDS011;5095;49.796;9.934;2022-09-09T11:57:30;0.10;;;0.10;;
10110;SDS011;5095;49.796;9.934;2022-09-09T11:59:58;0.10;;;0.10;;
10110;SDS011;5095;49.796;9.934;2022-09-09T12:02:25;0.10;;;0.10;;
10110;SDS011;5095;49.796;9.934;2022-09-09T12:04:57;0.10;;;0.10;;
10110;SDS011;5095;49.796;9.934;2022-09-09T12:09:52;2.43;;;0.87;;
10110;SDS011;5095;49.796;9.934;2022-09-09T12:12:34;0.10;;;0.10;;
10110;SDS011;5095;49.796;9.934;2022-09-09T12:17:43;0.07;;;0.07;;
10110;SDS011;5095;49.796;9.934;2022-09-09T12:20:14;0.10;;;0.10;;
10110;SDS011;5095;49.796;9.934;2022-09-09T12:28:18;0.10;;;0.10;;
10110;SDS011;5095;49.796;9.934;2022-09-09T12:33:36;0.10;;;0.10;;
10110;SDS011;5095;49.796;9.934;2022-09-09T12:36:05;0.10;;;0.10;;
10110;SDS011;5095;49.796;9.934;2022-09-09T12:38:35;0.20;;;0.20;;
10110;SDS011;5095;49.796;9.934;2022-09-09T12:41:02;0.07;;;0.07;;
10110;SDS011;5095;49.796;9.934;2022-09-09T12:43:28;0.10;;;0.10;;
10110;SDS011;5095;49.796;9.934;2022-09-09T12:46:02;0.10;;;0.10;;
10110;SDS011;5095;49.796;9.934;2022-09-09T12:48:36;0.10;;;0.10;;
10110;SDS011;5095;49.796;9.934;2022-09-09T12:51:03;0.10;;;0.10;;
10110;SDS011;5095;49.796;9.934;2022-09-09T12:53:31;0.10;;;0.10;;
10110;SDS011;5095;49.796;9.934;2022-09-09T12:56:00;0.10;;;0.10;;
10110;SDS011;5095;49.796;9.934;2022-09-09T12:58:27;0.20;;;0.20;;
10110;SDS011;5095;49.796;9.934;2022-09-09T13:00:57;0.10;;;0.10;;
10110;SDS011;5095;49.796;9.934;2022-09-09T13:03:24;0.20;;;0.20;;
10110;SDS011;5095;49.796;9.934;2022-09-09T13:05:51;0.10;;;0.10;;
10110;SDS011;5095;49.796;9.934;2022-09-09T13:08:18;0.10;;;0.10;;
10110;SDS011;5095;49.796;9.934;2022-09-09T13:10:51;0.10;;;0.10;;
10110;SDS011;5095;49.796;9.934;2022-09-09T13:13:21;0.00;;;0.00;;
10110;SDS011;5095;49.796;9.934;2022-09-09T13:15:54;0.00;;;0.00;;
10110;SDS011;5095;49.796;9.934;2022-09-09T13:18:28;0.70;;;0.70;;
10110;SDS011;5095;49.796;9.934;2022-09-09T13:20:55;0.50;;;0.50;;
10110;SDS011;5095;49.796;9.934;2022-09-09T13:23:23;0.00;;;0.00;;
10110;SDS011;5095;49.796;9.934;2022-09-09T13:28:22;0.20;;;0.20;;
10110;SDS011;5095;49.796;9.934;2022-09-09T13:31:05;0.00;;;0.00;;
10110;SDS011;5095;49.796;9.934;2022-09-09T13:33:44;0.00;;;0.00;;
10110;SDS011;5095;49.796;9.934;2022-09-09T13:36:11;0.03;;;0.03;;
10110;SDS011;5095;49.796;9.934;2022-09-09T13:41:24;0.00;;;0.00;;
10110;SDS011;5095;49.796;9.934;2022-09-09T13:43:50;0.00;;;0.00;;
10110;SDS011;5095;49.796;9.934;2022-09-09T13:48:56;0.00;;;0.00;;
10110;SDS011;5095;49.796;9.934;2022-09-09T13:51:33;2.80;;;1.17;;
10110;SDS011;5095;49.796;9.934;2022-09-09T13:54:00;4.00;;;1.30;;
10110;SDS011;5095;49.796;9.934;2022-09-09T13:56:26;4.50;;;0.83;;
10110;SDS011;5095;49.796;9.934;2022-09-09T13:58:53;3.57;;;0.80;;
10110;SDS011;5095;49.796;9.934;2022-09-09T14:01:19;2.33;;;0.90;;
10110;SDS011;5095;49.796;9.934;2022-09-09T14:03:45;4.60;;;0.80;;
10110;SDS011;5095;49.796;9.934;2022-09-09T14:06:12;3.73;;;1.00;;
10110;SDS011;5095;49.796;9.934;2022-09-09T14:08:38;2.97;;;0.90;;
10110;SDS011;5095;49.796;9.934;2022-09-09T14:11:05;2.17;;;0.83;;
10110;SDS011;5095;49.796;9.934;2022-09-09T14:13:31;2.03;;;0.60;;
10110;SDS011;5095;49.796;9.934;2022-09-09T14:15:57;1.93;;;0.93;;
10110;SDS011;5095;49.796;9.934;2022-09-09T14:18:23;2.10;;;0.83;;
10110;SDS011;5095;49.796;9.934;2022-09-09T14:20:50;1.40;;;0.80;;
10110;SDS011;5095;49.796;9.934;2022-09-09T14:23:16;2.80;;;1.00;;
10110;SDS011;5095;49.796;9.934;2022-09-09T14:25:43;3.63;;;1.10;;
10110;SDS011;5095;49.796;9.934;2022-09-09T14:28:10;2.00;;;1.20;;
10110;SDS011;5095;49.796;9.934;2022-09-09T14:30:37;2.07;;;0.93;;
10110;SDS011;5095;49.796;9.934;2022-09-09T14:33:04;3.57;;;0.70;;
10110;SDS011;5095;49.796;9.934;2022-09-09T14:35:30;2.30;;;0.80;;
10110;SDS011;5095;49.796;9.934;2022-09-09T14:37:58;1.97;;;0.80;;
10110;SDS011;5095;49.796;9.934;2022-09-09T14:40:25;2.30;;;0.77;;
10110;SDS011;5095;49.796;9.934;2022-09-09T14:42:52;2.87;;;0.90;;
10110;SDS011;5095;49.796;9.934;2022-09-09T14:45:18;2.50;;;0.90;;
10110;SDS011;5095;49.796;9.934;2022-09-09T14:47:46;3.43;;;0.93;;
10110;SDS011;5095;49.796;9.934;2022-09-09T14:50:12;4.47;;;1.23;;
10110;SDS011;5095;49.796;9.934;2022-09-09T14:52:38;12.43;;;2.90;;
10110;SDS011;5095;49.796;9.934;2022-09-09T14:55:05;5.63;;;1.93;;
10110;SDS011;5095;49.796;9.934;2022-09-09T14:57:31;0.20;;;0.20;;
10110;SDS011;5095;49.796;9.934;2022-09-09T14:59:57;0.00;;;0.00;;
10110;SDS011;5095;49.796;9.934;2022-09-09T15:02:24;0.10;;;0.10;;
10110;SDS011;5095;49.796;9.934;2022-09-09T15:04:50;0.10;;;0.10;;
10110;SDS011;5095;49.796;9.934;2022-09-09T15:07:24;0.10;;;0.10;;
10110;SDS011;5095;49.796;9.934;2022-09-09T15:09:51;0.10;;;0.10;;
10110;SDS011;5095;49.796;9.934;2022-09-09T15:12:18;0.10;;;0.10;;
10110;SDS011;5095;49.796;9.934;2022-09-09T15:14:45;0.10;;;0.10;;
10110;SDS011;5095;49.796;9.934;2022-09-09T15:17:11;0.10;;;0.10;;
10110;SDS011;5095;49.796;9.934;2022-09-09T15:19:37;0.10;;;0.10;;
10110;SDS011;5095;49.796;9.934;2022-09-09T15:22:07;0.10;;;0.10;;
10110;SDS011;5095;49.796;9.934;2022-09-09T15:24:36;0.10;;;0.10;;
10110;SDS011;5095;49.796;9.934;2022-09-09T15:27:02;0.23;;;0.23;;
10110;SDS011;5095;49.796;9.934;2022-09-09T15:29:28;0.10;;;0.10;;
10110;SDS011;5095;49.796;9.934;2022-09-09T15:31:54;0.73;;;0.20;;
10110;SDS011;5095;49.796;9.934;2022-09-09T15:34:21;0.10;;;0.10;;
10110;SDS011;5095;49.796;9.934;2022-09-09T15:36:47;0.10;;;0.10;;
10110;SDS011;5095;49.796;9.934;2022-09-09T15:39:14;0.10;;;0.10;;
10110;SDS011;5095;49.796;9.934;2022-09-09T15:41:44;0.10;;;0.10;;
10110;SDS011;5095;49.796;9.934;2022-09-09T15:44:10;0.10;;;0.10;;
10110;SDS011;5095;49.796;9.934;2022-09-09T15:46:38;0.10;;;0.10;;
10110;SDS011;5095;49.796;9.934;2022-09-09T15:49:09;0.10;;;0.10;;
10110;SDS011;5095;49.796;9.934;2022-09-09T15:51:35;0.10;;;0.10;;
10110;SDS011;5095;49.796;9.934;2022-09-09T15:54:04;0.00;;;0.00;;
10110;SDS011;5095;49.796;9.934;2022-09-09T15:56:31;0.30;;;0.30;;
10110;SDS011;5095;49.796;9.934;2022-09-09T15:58:58;0.10;;;0.10;;
10110;SDS011;5095;49.796;9.934;2022-09-09T16:01:25;0.10;;;0.10;;
10110;SDS011;5095;49.796;9.934;2022-09-09T16:03:52;0.10;;;0.10;;
10110;SDS011;5095;49.796;9.934;2022-09-09T16:06:19;0.10;;;0.10;;
10110;SDS011;5095;49.796;9.934;2022-09-09T16:08:46;0.10;;;0.10;;
10110;SDS011;5095;49.796;9.934;2022-09-09T16:13:45;0.97;;;0.63;;
10110;SDS011;5095;49.796;9.934;2022-09-09T16:16:11;0.07;;;0.07;;
10110;SDS011;5095;49.796;9.934;2022-09-09T16:18:38;0.10;;;0.10;;
10110;SDS011;5095;49.796;9.934;2022-09-09T16:21:05;0.10;;;0.10;;
10110;SDS011;5095;49.796;9.934;2022-09-09T16:23:33;0.10;;;0.10;;
10110;SDS011;5095;49.796;9.934;2022-09-09T16:25:59;0.10;;;0.10;;
10110;SDS011;5095;49.796;9.934;2022-09-09T16:28:26;0.03;;;0.03;;
10110;SDS011;5095;49.796;9.934;2022-09-09T16:30:52;0.10;;;0.10;;
10110;SDS011;5095;49.796;9.934;2022-09-09T16:33:18;0.17;;;0.17;;
10110;SDS011;5095;49.796;9.934;2022-09-09T16:35:44;0.10;;;0.10;;
10110;SDS011;5095;49.796;9.934;2022-09-09T16:38:11;0.00;;;0.00;;
10110;SDS011;5095;49.796;9.934;2022-09-09T16:40:37;0.00;;;0.00;;
10110;SDS011;5095;49.796;9.934;2022-09-09T16:43:06;0.10;;;0.10;;
10110;SDS011;5095;49.796;9.934;2022-09-09T16:45:32;0.00;;;0.00;;
10110;SDS011;5095;49.796;9.934;2022-09-09T16:47:59;0.03;;;0.03;;
10110;SDS011;5095;49.796;9.934;2022-09-09T16:50:26;0.07;;;0.07;;
10110;SDS011;5095;49.796;9.934;2022-09-09T16:52:52;0.10;;;0.10;;
10110;SDS011;5095;49.796;9.934;2022-09-09T16:55:22;0.10;;;0.10;;
10110;SDS011;5095;49.796;9.934;2022-09-09T16:57:49;0.10;;;0.10;;
10110;SDS011;5095;49.796;9.934;2022-09-09T17:00:15;0.10;;;0.10;;
10110;SDS011;5095;49.796;9.934;2022-09-09T17:02:43;0.10;;;0.10;;
10110;SDS011;5095;49.796;9.934;2022-09-09T17:05:10;0.07;;;0.07;;
10110;SDS011;5095;49.796;9.934;2022-09-09T17:07:37;0.10;;;0.10;;
10110;SDS011;5095;49.796;9.934;2022-09-09T17:10:04;0.10;;;0.10;;
10110;SDS011;5095;49.796;9.934;2022-09-09T17:12:30;0.10;;;0.10;;
10110;SDS011;5095;49.796;9.934;2022-09-09T17:14:57;0.10;;;0.10;;
10110;SDS011;5095;49.796;9.934;2022-09-09T17:17:24;0.10;;;0.10;;
10110;SDS011;5095;49.796;9.934;2022-09-09T17:19:51;0.10;;;0.10;;
10110;SDS011;5095;49.796;9.934;2022-09-09T17:22:17;0.50;;;0.50;;
10110;SDS011;5095;49.796;9.934;2022-09-09T17:24:44;0.10;;;0.10;;